sensor_id;sensor_type;location;lat;lon;timestamp;temperature;humidity
16060;DHT22;8134;49.552;7.632;2022-10-20T07:23:41;13.00;99.90
16060;DHT22;8134;49.552;7.632;2022-10-20T07:26:08;13.10;99.90
16060;DHT22;8134;49.552;7.632;2022-10-20T07:28:35;13.10;99.90
16060;DHT22;8134;49.552;7.632;2022-10-20T07:31:01;13.20;99.90
16060;DHT22;8134;49.552;7.632;2022-10-20T07:33:27;13.20;99.90
16060;DHT22;8134;49.552;7.632;2022-10-20T07:35:52;13.20;99.90
16060;DHT22;8134;49.552;7.632;2022-10-20T07:38:18;13.20;99.90
16060;DHT22;8134;49.552;7.632;2022-10-20T07:40:43;13.30;99.90
16060;DHT22;8134;49.552;7.632;2022-10-20T07:43:09;13.30;99.90
16060;DHT22;8134;49.552;7.632;2022-10-20T07:45:34;13.30;99.90
16060;DHT22;8134;49.552;7.632;2022-10-20T07:48:00;13.30;99.90
16060;DHT22;8134;49.552;7.632;2022-10-20T07:50:26;13.40;99.90
16060;DHT22;8134;49.552;7.632;2022-10-20T07:52:51;13.50;99.90
16060;DHT22;8134;49.552;7.632;2022-10-20T07:55:17;13.50;99.90
16060;DHT22;8134;49.552;7.632;2022-10-20T07:57:43;13.50;99.90
16060;DHT22;8134;49.552;7.632;2022-10-20T08:00:08;13.50;99.90
16060;DHT22;8134;49.552;7.632;2022-10-20T08:02:34;13.60;99.90
16060;DHT22;8134;49.552;7.632;2022-10-20T08:04:59;13.50;99.90
16060;DHT22;8134;49.552;7.632;2022-10-20T08:07:25;13.60;99.90
16060;DHT22;8134;49.552;7.632;2022-10-20T08:09:50;13.60;99.90
16060;DHT22;8134;49.552;7.632;2022-10-20T08:12:16;13.70;99.90
16060;DHT22;8134;49.552;7.632;2022-10-20T08:14:41;13.70;99.90
16060;DHT22;8134;49.552;7.632;2022-10-20T08:17:08;13.80;99.90
16060;DHT22;8134;49.552;7.632;2022-10-20T08:19:34;13.90;99.90
16060;DHT22;8134;49.552;7.632;2022-10-20T08:21:59;13.90;99.90
16060;DHT22;8134;49.552;7.632;2022-10-20T08:24:25;14.00;99.90
16060;DHT22;8134;49.552;7.632;2022-10-20T08:26:50;14.10;99.90
16060;DHT22;8134;49.552;7.632;2022-10-20T08:29:16;14.00;99.90
16060;DHT22;8134;49.552;7.632;2022-10-20T08:31:42;14.00;99.90
16060;DHT22;8134;49.552;7.632;2022-10-20T08:34:07;14.10;99.90
16060;DHT22;8134;49.552;7.632;2022-10-20T08:36:33;14.10;99.90
16060;DHT22;8134;49.552;7.632;2022-10-20T08:38:58;14.10;99.90
16060;DHT22;8134;49.552;7.632;2022-10-20T08:41:25;14.10;99.90
16060;DHT22;8134;49.552;7.632;2022-10-20T08:43:52;14.20;99.90
16060;DHT22;8134;49.552;7.632;2022-10-20T08:46:19;14.20;99.90
16060;DHT22;8134;49.552;7.632;2022-10-20T08:48:45;14.30;99.90
16060;DHT22;8134;49.552;7.632;2022-10-20T08:51:18;14.30;99.90
16060;DHT22;8134;49.552;7.632;2022-10-20T08:53:45;14.30;99.90
16060;DHT22;8134;49.552;7.632;2022-10-20T08:56:11;14.30;99.90
16060;DHT22;8134;49.552;7.632;2022-10-20T08:58:40;14.40;99.90
16060;DHT22;8134;49.552;7.632;2022-10-20T09:01:07;14.40;99.90
16060;DHT22;8134;49.552;7.632;2022-10-20T09:03:38;14.50;99.90
16060;DHT22;8134;49.552;7.632;2022-10-20T09:06:08;14.60;99.90
16060;DHT22;8134;49.552;7.632;2022-10-20T09:08:37;14.70;99.90
16060;DHT22;8134;49.552;7.632;2022-10-20T09:11:03;14.70;99.90
16060;DHT22;8134;49.552;7.632;2022-10-20T09:13:30;14.80;99.90
16060;DHT22;8134;49.552;7.632;2022-10-20T09:15:59;14.80;99.90
16060;DHT22;8134;49.552;7.632;2022-10-20T09:18:28;14.80;99.90
16060;DHT22;8134;49.552;7.632;2022-10-20T09:21:13;14.80;99.90
16060;DHT22;8134;49.552;7.632;2022-10-20T09:23:47;14.80;99.90
16060;DHT22;8134;49.552;7.632;2022-10-20T09:26:16;14.90;99.90
16060;DHT22;8134;49.552;7.632;2022-10-20T09:28:42;15.00;99.90
16060;DHT22;8134;49.552;7.632;2022-10-20T09:31:22;15.10;99.90
16060;DHT22;8134;49.552;7.632;2022-10-20T09:33:48;15.10;99.90
16060;DHT22;8134;49.552;7.632;2022-10-20T09:36:15;15.10;99.90
16060;DHT22;8134;49.552;7.632;2022-10-20T09:38:48;15.20;99.90
16060;DHT22;8134;49.552;7.632;2022-10-20T09:41:18;15.10;99.90
16060;DHT22;8134;49.552;7.632;2022-10-20T09:43:48;15.20;99.90
16060;DHT22;8134;49.552;7.632;2022-10-20T09:46:16;15.30;99.90
16060;DHT22;8134;49.552;7.632;2022-10-20T09:48:46;15.40;99.90
16060;DHT22;8134;49.552;7.632;2022-10-20T09:51:25;15.60;99.90
16060;DHT22;8134;49.552;7.632;2022-10-20T09:53:52;15.70;99.90
16060;DHT22;8134;49.552;7.632;2022-10-20T09:56:26;15.60;99.90
16060;DHT22;8134;49.552;7.632;2022-10-20T09:58:51;15.60;99.90
16060;DHT22;8134;49.552;7.632;2022-10-20T10:01:17;15.50;99.90
16060;DHT22;8134;49.552;7.632;2022-10-20T10:03:44;15.50;99.90
16060;DHT22;8134;49.552;7.632;2022-10-20T10:06:20;15.50;99.90
16060;DHT22;8134;49.552;7.632;2022-10-20T10:08:50;15.50;99.90
16060;DHT22;8134;49.552;7.632;2022-10-20T10:11:17;15.60;99.90
16060;DHT22;8134;49.552;7.632;2022-10-20T10:13:44;15.60;99.90
16060;DHT22;8134;49.552;7.632;2022-10-20T10:16:11;15.70;99.90
16060;DHT22;8134;49.552;7.632;2022-10-20T10:18:38;15.70;99.90
16060;DHT22;8134;49.552;7.632;2022-10-20T10:21:08;15.80;99.90
16060;DHT22;8134;49.552;7.632;2022-10-20T10:23:35;15.90;99.90
16060;DHT22;8134;49.552;7.632;2022-10-20T10:26:31;16.10;99.90
16060;DHT22;8134;49.552;7.632;2022-10-20T10:28:56;16.20;99.90
16060;DHT22;8134;49.552;7.632;2022-10-20T10:31:22;16.20;99.90
16060;DHT22;8134;49.552;7.632;2022-10-20T10:33:49;16.10;99.90
16060;DHT22;8134;49.552;7.632;2022-10-20T10:36:26;16.10;99.90
16060;DHT22;8134;49.552;7.632;2022-10-20T10:38:52;16.10;99.90
16060;DHT22;8134;49.552;7.632;2022-10-20T10:41:24;16.10;99.90
16060;DHT22;8134;49.552;7.632;2022-10-20T10:43:59;16.20;99.90
16060;DHT22;8134;49.552;7.632;2022-10-20T10:46:27;16.20;99.90
16060;DHT22;8134;49.552;7.632;2022-10-20T10:56:50;16.40;99.90
16060;DHT22;8134;49.552;7.632;2022-10-20T10:59:22;16.50;99.90
16060;DHT22;8134;49.552;7.632;2022-10-20T11:07:09;16.50;99.90
16060;DHT22;8134;49.552;7.632;2022-10-20T11:09:40;16.50;99.90
16060;DHT22;8134;49.552;7.632;2022-10-20T11:14:57;16.60;99.90
16060;DHT22;8134;49.552;7.632;2022-10-20T11:17:32;16.60;99.90
16060;DHT22;8134;49.552;7.632;2022-10-20T11:27:55;16.70;99.90
16060;DHT22;8134;49.552;7.632;2022-10-20T11:30:21;16.70;99.90
16060;DHT22;8134;49.552;7.632;2022-10-20T11:35:26;16.70;99.90
16060;DHT22;8134;49.552;7.632;2022-10-20T11:40:22;16.80;99.90
16060;DHT22;8134;49.552;7.632;2022-10-20T11:47:42;16.80;99.90
16060;DHT22;8134;49.552;7.632;2022-10-20T11:50:17;16.80;99.90
16060;DHT22;8134;49.552;7.632;2022-10-20T11:52:59;16.80;99.90
16060;DHT22;8134;49.552;7.632;2022-10-20T12:11:16;16.90;99.90
16060;DHT22;8134;49.552;7.632;2022-10-20T12:19:23;16.80;99.90
16060;DHT22;8134;49.552;7.632;2022-10-20T12:24:32;16.70;99.90
16060;DHT22;8134;49.552;7.632;2022-10-20T12:34:45;16.60;99.90
16060;DHT22;8134;49.552;7.632;2022-10-20T12:37:15;16.60;99.90
16060;DHT22;8134;49.552;7.632;2022-10-20T12:39:41;16.60;99.90
16060;DHT22;8134;49.552;7.632;2022-10-20T12:42:12;16.60;99.90
16060;DHT22;8134;49.552;7.632;2022-10-20T12:44:42;16.60;99.90
16060;DHT22;8134;49.552;7.632;2022-10-20T12:47:09;16.60;99.90
16060;DHT22;8134;49.552;7.632;2022-10-20T12:49:41;16.60;99.90
16060;DHT22;8134;49.552;7.632;2022-10-20T12:52:19;16.60;99.90
16060;DHT22;8134;49.552;7.632;2022-10-20T12:54:45;16.60;99.90
16060;DHT22;8134;49.552;7.632;2022-10-20T13:00:06;16.70;99.90
16060;DHT22;8134;49.552;7.632;2022-10-20T13:02:52;16.70;99.90
16060;DHT22;8134;49.552;7.632;2022-10-20T13:15:25;16.50;99.90
16060;DHT22;8134;49.552;7.632;2022-10-20T13:17:56;16.50;99.90
16060;DHT22;8134;49.552;7.632;2022-10-20T13:20:35;16.50;99.90
16060;DHT22;8134;49.552;7.632;2022-10-20T13:23:02;16.50;99.90
16060;DHT22;8134;49.552;7.632;2022-10-20T13:28:05;16.40;99.90
16060;DHT22;8134;49.552;7.632;2022-10-20T13:30:30;16.40;99.90
16060;DHT22;8134;49.552;7.632;2022-10-20T13:33:02;16.40;99.90
16060;DHT22;8134;49.552;7.632;2022-10-20T13:35:32;16.40;99.90
16060;DHT22;8134;49.552;7.632;2022-10-20T13:38:10;16.40;99.90
16060;DHT22;8134;49.552;7.632;2022-10-20T13:50:43;16.30;99.90
16060;DHT22;8134;49.552;7.632;2022-10-20T13:53:13;16.30;99.90
16060;DHT22;8134;49.552;7.632;2022-10-20T13:58:17;16.30;99.90
16060;DHT22;8134;49.552;7.632;2022-10-20T14:00:52;16.20;99.90
16060;DHT22;8134;49.552;7.632;2022-10-20T14:03:19;16.20;99.90
16060;DHT22;8134;49.552;7.632;2022-10-20T14:05:45;16.20;99.90
16060;DHT22;8134;49.552;7.632;2022-10-20T14:08:12;16.20;99.90
16060;DHT22;8134;49.552;7.632;2022-10-20T14:10:42;16.20;99.90
16060;DHT22;8134;49.552;7.632;2022-10-20T14:13:09;16.20;99.90
16060;DHT22;8134;49.552;7.632;2022-10-20T14:15:37;16.20;99.90
16060;DHT22;8134;49.552;7.632;2022-10-20T14:18:05;16.10;99.90
16060;DHT22;8134;49.552;7.632;2022-10-20T14:20:32;16.10;99.90
16060;DHT22;8134;49.552;7.632;2022-10-20T14:22:58;16.10;99.90
16060;DHT22;8134;49.552;7.632;2022-10-20T14:25:25;16.00;99.90
16060;DHT22;8134;49.552;7.632;2022-10-20T14:27:51;16.00;99.90
16060;DHT22;8134;49.552;7.632;2022-10-20T14:30:17;15.90;99.90
16060;DHT22;8134;49.552;7.632;2022-10-20T14:32:45;15.90;99.90
16060;DHT22;8134;49.552;7.632;2022-10-20T14:37:44;15.90;99.90
16060;DHT22;8134;49.552;7.632;2022-10-20T14:40:18;15.90;99.90
16060;DHT22;8134;49.552;7.632;2022-10-20T14:42:44;15.90;99.90
16060;DHT22;8134;49.552;7.632;2022-10-20T14:45:20;15.80;99.90
16060;DHT22;8134;49.552;7.632;2022-10-20T14:47:46;15.70;99.90
16060;DHT22;8134;49.552;7.632;2022-10-20T14:50:18;15.70;99.90
16060;DHT22;8134;49.552;7.632;2022-10-20T14:52:44;15.70;99.90
16060;DHT22;8134;49.552;7.632;2022-10-20T15:03:38;15.90;99.90
16060;DHT22;8134;49.552;7.632;2022-10-20T15:06:04;15.90;99.90
16060;DHT22;8134;49.552;7.632;2022-10-20T15:08:29;16.00;99.90
16060;DHT22;8134;49.552;7.632;2022-10-20T15:10:55;16.00;99.90
16060;DHT22;8134;49.552;7.632;2022-10-20T15:13:25;16.00;99.90
16060;DHT22;8134;49.552;7.632;2022-10-20T15:15:51;15.90;99.90
16060;DHT22;8134;49.552;7.632;2022-10-20T15:18:18;15.90;99.90
16060;DHT22;8134;49.552;7.632;2022-10-20T15:20:44;15.80;99.90
16060;DHT22;8134;49.552;7.632;2022-10-20T15:23:15;15.80;99.90
16060;DHT22;8134;49.552;7.632;2022-10-20T15:28:43;15.80;99.90
16060;DHT22;8134;49.552;7.632;2022-10-20T15:31:21;15.70;99.90
16060;DHT22;8134;49.552;7.632;2022-10-20T15:33:47;15.60;99.90
16060;DHT22;8134;49.552;7.632;2022-10-20T15:36:19;15.60;99.90
16060;DHT22;8134;49.552;7.632;2022-10-20T15:38:48;15.60;99.90
16060;DHT22;8134;49.552;7.632;2022-10-20T15:41:16;15.60;99.90
16060;DHT22;8134;49.552;7.632;2022-10-20T15:43:42;15.60;99.90
16060;DHT22;8134;49.552;7.632;2022-10-20T15:46:08;15.70;99.90
16060;DHT22;8134;49.552;7.632;2022-10-20T15:48:35;15.70;99.90
16060;DHT22;8134;49.552;7.632;2022-10-20T15:51:00;15.60;99.90
16060;DHT22;8134;49.552;7.632;2022-10-20T15:53:26;15.60;99.90
16060;DHT22;8134;49.552;7.632;2022-10-20T15:55:51;15.60;99.90
16060;DHT22;8134;49.552;7.632;2022-10-20T15:58:18;15.60;99.90
16060;DHT22;8134;49.552;7.632;2022-10-20T16:00:43;15.60;99.90
16060;DHT22;8134;49.552;7.632;2022-10-20T16:03:16;15.50;99.90
16060;DHT22;8134;49.552;7.632;2022-10-20T16:05:42;15.40;99.90
16060;DHT22;8134;49.552;7.632;2022-10-20T16:08:07;15.40;99.90
16060;DHT22;8134;49.552;7.632;2022-10-20T16:10:33;15.40;99.90
16060;DHT22;8134;49.552;7.632;2022-10-20T16:12:58;15.40;99.90
16060;DHT22;8134;49.552;7.632;2022-10-20T16:15:24;15.40;99.90
16060;DHT22;8134;49.552;7.632;2022-10-20T16:17:50;15.40;99.90
16060;DHT22;8134;49.552;7.632;2022-10-20T16:20:15;15.30;99.90
16060;DHT22;8134;49.552;7.632;2022-10-20T16:22:41;15.30;99.90
16060;DHT22;8134;49.552;7.632;2022-10-20T16:25:07;15.30;99.90
16060;DHT22;8134;49.552;7.632;2022-10-20T16:27:32;15.30;99.90
16060;DHT22;8134;49.552;7.632;2022-10-20T16:29:58;15.20;99.90
16060;DHT22;8134;49.552;7.632;2022-10-20T16:32:24;15.20;99.90
16060;DHT22;8134;49.552;7.632;2022-10-20T16:34:50;15.30;99.90
16060;DHT22;8134;49.552;7.632;2022-10-20T16:37:15;15.30;99.90
16060;DHT22;8134;49.552;7.632;2022-10-20T16:39:41;15.20;99.90
16060;DHT22;8134;49.552;7.632;2022-10-20T16:42:06;15.10;99.90
16060;DHT22;8134;49.552;7.632;2022-10-20T16:44:32;15.10;99.90
16060;DHT22;8134;49.552;7.632;2022-10-20T16:46:57;15.10;99.90
16060;DHT22;8134;49.552;7.632;2022-10-20T16:49:23;15.10;99.90
16060;DHT22;8134;49.552;7.632;2022-10-20T16:51:49;15.10;99.90
16060;DHT22;8134;49.552;7.632;2022-10-20T16:54:15;15.10;99.90
16060;DHT22;8134;49.552;7.632;2022-10-20T16:56:40;15.10;99.90
16060;DHT22;8134;49.552;7.632;2022-10-20T16:59:06;15.10;99.90
16060;DHT22;8134;49.552;7.632;2022-10-20T17:01:31;15.10;99.90
16060;DHT22;8134;49.552;7.632;2022-10-20T17:03:57;15.00;99.90
16060;DHT22;8134;49.552;7.632;2022-10-20T17:06:23;15.00;99.90
16060;DHT22;8134;49.552;7.632;2022-10-20T17:08:49;15.00;99.90
16060;DHT22;8134;49.552;7.632;2022-10-20T17:11:22;15.10;99.90
16060;DHT22;8134;49.552;7.632;2022-10-20T17:13:48;15.00;99.90
16060;DHT22;8134;49.552;7.632;2022-10-20T17:16:21;14.90;99.90
16060;DHT22;8134;49.552;7.632;2022-10-20T17:18:47;14.90;99.90
16060;DHT22;8134;49.552;7.632;2022-10-20T17:21:13;14.90;99.90
16060;DHT22;8134;49.552;7.632;2022-10-20T17:23:39;15.00;99.90
16060;DHT22;8134;49.552;7.632;2022-10-20T17:26:05;14.90;99.90
16060;DHT22;8134;49.552;7.632;2022-10-20T17:28:32;14.90;99.90
16060;DHT22;8134;49.552;7.632;2022-10-20T17:30:58;14.80;99.90
16060;DHT22;8134;49.552;7.632;2022-10-20T17:33:27;14.80;99.90
16060;DHT22;8134;49.552;7.632;2022-10-20T17:35:53;14.80;99.90
16060;DHT22;8134;49.552;7.632;2022-10-20T17:38:19;14.70;99.90
16060;DHT22;8134;49.552;7.632;2022-10-20T17:40:44;14.60;99.90
16060;DHT22;8134;49.552;7.632;2022-10-20T17:43:10;14.70;99.90
16060;DHT22;8134;49.552;7.632;2022-10-20T17:45:36;14.70;99.90
16060;DHT22;8134;49.552;7.632;2022-10-20T17:48:01;14.70;99.90
16060;DHT22;8134;49.552;7.632;2022-10-20T17:50:27;14.60;99.90
16060;DHT22;8134;49.552;7.632;2022-10-20T17:52:52;14.60;99.90
16060;DHT22;8134;49.552;7.632;2022-10-20T17:55:18;14.50;99.90
16060;DHT22;8134;49.552;7.632;2022-10-20T17:57:44;14.40;99.90
16060;DHT22;8134;49.552;7.632;2022-10-20T18:00:09;14.40;99.90
16060;DHT22;8134;49.552;7.632;2022-10-20T18:02:35;14.40;99.90
16060;DHT22;8134;49.552;7.632;2022-10-20T18:05:00;14.50;99.90
16060;DHT22;8134;49.552;7.632;2022-10-20T18:07:26;14.30;99.90
16060;DHT22;8134;49.552;7.632;2022-10-20T18:09:52;14.10;99.90
16060;DHT22;8134;49.552;7.632;2022-10-20T18:12:17;14.10;99.90
16060;DHT22;8134;49.552;7.632;2022-10-20T18:14:43;14.00;99.90
16060;DHT22;8134;49.552;7.632;2022-10-20T18:17:08;13.90;99.90
16060;DHT22;8134;49.552;7.632;2022-10-20T18:19:34;13.90;99.90
16060;DHT22;8134;49.552;7.632;2022-10-20T18:21:59;13.90;99.90
16060;DHT22;8134;49.552;7.632;2022-10-20T18:24:25;13.80;99.90
16060;DHT22;8134;49.552;7.632;2022-10-20T18:26:50;13.80;99.90
16060;DHT22;8134;49.552;7.632;2022-10-20T18:29:16;13.80;99.90
16060;DHT22;8134;49.552;7.632;2022-10-20T18:31:42;13.70;99.90
16060;DHT22;8134;49.552;7.632;2022-10-20T18:34:10;13.70;99.90
16060;DHT22;8134;49.552;7.632;2022-10-20T18:36:35;13.80;99.90
16060;DHT22;8134;49.552;7.632;2022-10-20T18:39:01;13.70;99.90
16060;DHT22;8134;49.552;7.632;2022-10-20T18:41:28;13.70;99.90
16060;DHT22;8134;49.552;7.632;2022-10-20T18:43:55;13.70;99.90
16060;DHT22;8134;49.552;7.632;2022-10-20T18:46:20;13.70;99.90
16060;DHT22;8134;49.552;7.632;2022-10-20T18:48:46;13.60;99.90
16060;DHT22;8134;49.552;7.632;2022-10-20T18:51:12;13.40;99.90
16060;DHT22;8134;49.552;7.632;2022-10-20T18:53:38;13.30;99.90
16060;DHT22;8134;49.552;7.632;2022-10-20T18:56:14;13.30;99.90
16060;DHT22;8134;49.552;7.632;2022-10-20T18:58:41;13.40;99.90
16060;DHT22;8134;49.552;7.632;2022-10-20T19:01:08;13.40;99.90
16060;DHT22;8134;49.552;7.632;2022-10-20T19:03:35;13.50;99.90
16060;DHT22;8134;49.552;7.632;2022-10-20T19:06:01;13.40;99.90
16060;DHT22;8134;49.552;7.632;2022-10-20T19:08:27;13.60;99.90
16060;DHT22;8134;49.552;7.632;2022-10-20T19:10:52;13.70;99.90
16060;DHT22;8134;49.552;7.632;2022-10-20T19:13:18;13.80;99.90
16060;DHT22;8134;49.552;7.632;2022-10-20T19:15:44;13.80;99.90
16060;DHT22;8134;49.552;7.632;2022-10-20T19:18:09;13.90;99.90
16060;DHT22;8134;49.552;7.632;2022-10-20T19:20:34;14.00;99.90
16060;DHT22;8134;49.552;7.632;2022-10-20T19:23:00;14.10;99.90
16060;DHT22;8134;49.552;7.632;2022-10-20T19:25:25;14.10;99.90
16060;DHT22;8134;49.552;7.632;2022-10-20T19:27:51;14.10;99.90
16060;DHT22;8134;49.552;7.632;2022-10-20T19:30:16;14.20;99.90
16060;DHT22;8134;49.552;7.632;2022-10-20T19:32:42;14.20;99.90
16060;DHT22;8134;49.552;7.632;2022-10-20T19:35:07;14.20;99.90
16060;DHT22;8134;49.552;7.632;2022-10-20T19:37:33;14.30;99.90
16060;DHT22;8134;49.552;7.632;2022-10-20T19:39:59;14.30;99.90
16060;DHT22;8134;49.552;7.632;2022-10-20T19:42:24;14.30;99.90
16060;DHT22;8134;49.552;7.632;2022-10-20T19:44:50;14.20;99.90
16060;DHT22;8134;49.552;7.632;2022-10-20T19:47:15;14.30;99.90
16060;DHT22;8134;49.552;7.632;2022-10-20T19:49:41;14.30;99.90
16060;DHT22;8134;49.552;7.632;2022-10-20T19:52:06;14.30;99.90
16060;DHT22;8134;49.552;7.632;2022-10-20T19:54:32;14.40;99.90
16060;DHT22;8134;49.552;7.632;2022-10-20T19:56:58;14.40;99.90
16060;DHT22;8134;49.552;7.632;2022-10-20T19:59:24;14.50;99.90
16060;DHT22;8134;49.552;7.632;2022-10-20T20:01:50;14.30;99.90
16060;DHT22;8134;49.552;7.632;2022-10-20T20:04:17;14.30;99.90
16060;DHT22;8134;49.552;7.632;2022-10-20T20:06:42;14.30;99.90
16060;DHT22;8134;49.552;7.632;2022-10-20T20:09:09;14.40;99.90
16060;DHT22;8134;49.552;7.632;2022-10-20T20:11:35;14.30;99.90
16060;DHT22;8134;49.552;7.632;2022-10-20T20:14:11;14.30;99.90
16060;DHT22;8134;49.552;7.632;2022-10-20T20:16:37;14.20;99.90
16060;DHT22;8134;49.552;7.632;2022-10-20T20:19:03;14.30;99.90
16060;DHT22;8134;49.552;7.632;2022-10-20T20:21:28;14.30;99.90
16060;DHT22;8134;49.552;7.632;2022-10-20T20:23:58;14.40;99.90
16060;DHT22;8134;49.552;7.632;2022-10-20T20:26:24;14.40;99.90
16060;DHT22;8134;49.552;7.632;2022-10-20T20:28:52;14.40;99.90
16060;DHT22;8134;49.552;7.632;2022-10-20T20:31:19;14.40;99.90
16060;DHT22;8134;49.552;7.632;2022-10-20T20:33:45;14.50;99.90
16060;DHT22;8134;49.552;7.632;2022-10-20T20:36:10;14.50;99.90
16060;DHT22;8134;49.552;7.632;2022-10-20T20:38:36;14.50;99.90
16060;DHT22;8134;49.552;7.632;2022-10-20T20:41:03;14.50;99.90
16060;DHT22;8134;49.552;7.632;2022-10-20T20:43:29;14.40;99.90
16060;DHT22;8134;49.552;7.632;2022-10-20T20:45:55;14.40;99.90
16060;DHT22;8134;49.552;7.632;2022-10-20T20:48:26;14.40;99.90
16060;DHT22;8134;49.552;7.632;2022-10-20T20:50:55;14.40;99.90
16060;DHT22;8134;49.552;7.632;2022-10-20T20:53:21;14.40;99.90
16060;DHT22;8134;49.552;7.632;2022-10-20T20:55:53;14.30;99.90
16060;DHT22;8134;49.552;7.632;2022-10-20T20:58:19;14.20;99.90
16060;DHT22;8134;49.552;7.632;2022-10-20T21:00:44;14.20;99.90
16060;DHT22;8134;49.552;7.632;2022-10-20T21:03:10;14.20;99.90
16060;DHT22;8134;49.552;7.632;2022-10-20T21:05:36;14.10;99.90
16060;DHT22;8134;49.552;7.632;2022-10-20T21:08:02;14.00;99.90
16060;DHT22;8134;49.552;7.632;2022-10-20T21:10:27;14.00;99.90
16060;DHT22;8134;49.552;7.632;2022-10-20T21:12:52;14.00;99.90
16060;DHT22;8134;49.552;7.632;2022-10-20T21:15:19;14.00;99.90
16060;DHT22;8134;49.552;7.632;2022-10-20T21:17:45;14.00;99.90
16060;DHT22;8134;49.552;7.632;2022-10-20T21:20:10;14.00;99.90
16060;DHT22;8134;49.552;7.632;2022-10-20T21:22:36;14.00;99.90
16060;DHT22;8134;49.552;7.632;2022-10-20T21:25:02;14.00;99.90
16060;DHT22;8134;49.552;7.632;2022-10-20T21:27:27;14.00;99.90
16060;DHT22;8134;49.552;7.632;2022-10-20T21:29:52;14.00;99.90
16060;DHT22;8134;49.552;7.632;2022-10-20T21:32:18;13.90;99.90
16060;DHT22;8134;49.552;7.632;2022-10-20T21:34:44;13.90;99.90
16060;DHT22;8134;49.552;7.632;2022-10-20T21:37:10;13.90;99.90
16060;DHT22;8134;49.552;7.632;2022-10-20T21:39:35;14.00;99.90
16060;DHT22;8134;49.552;7.632;2022-10-20T21:42:01;14.00;99.90
16060;DHT22;8134;49.552;7.632;2022-10-20T21:44:26;14.00;99.90
16060;DHT22;8134;49.552;7.632;2022-10-20T21:46:52;14.00;99.90
16060;DHT22;8134;49.552;7.632;2022-10-20T21:49:18;14.10;99.90
16060;DHT22;8134;49.552;7.632;2022-10-20T21:51:45;14.10;99.90
16060;DHT22;8134;49.552;7.632;2022-10-20T21:54:12;14.20;99.90
16060;DHT22;8134;49.552;7.632;2022-10-20T21:56:38;14.10;99.90
16060;DHT22;8134;49.552;7.632;2022-10-20T21:59:05;14.10;99.90
16060;DHT22;8134;49.552;7.632;2022-10-20T22:01:31;14.10;99.90
16060;DHT22;8134;49.552;7.632;2022-10-20T22:03:57;14.10;99.90
16060;DHT22;8134;49.552;7.632;2022-10-20T22:06:23;14.10;99.90
16060;DHT22;8134;49.552;7.632;2022-10-20T22:08:50;14.10;99.90
16060;DHT22;8134;49.552;7.632;2022-10-20T22:11:20;14.20;99.90
16060;DHT22;8134;49.552;7.632;2022-10-20T22:13:46;14.10;99.90
16060;DHT22;8134;49.552;7.632;2022-10-20T22:16:14;14.20;99.90
16060;DHT22;8134;49.552;7.632;2022-10-20T22:18:40;14.20;99.90
16060;DHT22;8134;49.552;7.632;2022-10-20T22:21:06;14.30;99.90
16060;DHT22;8134;49.552;7.632;2022-10-20T22:23:32;13.90;99.90
16060;DHT22;8134;49.552;7.632;2022-10-20T22:25:58;13.80;99.90
16060;DHT22;8134;49.552;7.632;2022-10-20T22:28:24;13.70;99.90
16060;DHT22;8134;49.552;7.632;2022-10-20T22:30:49;13.60;99.90
16060;DHT22;8134;49.552;7.632;2022-10-20T22:33:15;13.60;99.90
16060;DHT22;8134;49.552;7.632;2022-10-20T22:35:40;13.60;99.90
16060;DHT22;8134;49.552;7.632;2022-10-20T22:38:06;13.70;99.90
16060;DHT22;8134;49.552;7.632;2022-10-20T22:40:31;13.70;99.90
16060;DHT22;8134;49.552;7.632;2022-10-20T22:42:57;13.80;99.90
16060;DHT22;8134;49.552;7.632;2022-10-20T22:45:22;14.00;99.90
16060;DHT22;8134;49.552;7.632;2022-10-20T22:47:48;14.20;99.90
16060;DHT22;8134;49.552;7.632;2022-10-20T22:50:13;14.40;99.90
16060;DHT22;8134;49.552;7.632;2022-10-20T22:52:39;14.50;99.90
16060;DHT22;8134;49.552;7.632;2022-10-20T22:55:04;14.70;99.90
16060;DHT22;8134;49.552;7.632;2022-10-20T22:57:30;14.80;99.90
16060;DHT22;8134;49.552;7.632;2022-10-20T22:59:56;14.90;99.90
16060;DHT22;8134;49.552;7.632;2022-10-20T23:02:21;14.90;99.90
16060;DHT22;8134;49.552;7.632;2022-10-20T23:04:46;14.90;99.90
16060;DHT22;8134;49.552;7.632;2022-10-20T23:07:12;14.90;99.90
16060;DHT22;8134;49.552;7.632;2022-10-20T23:09:37;14.90;99.90
16060;DHT22;8134;49.552;7.632;2022-10-20T23:12:03;14.90;99.90
16060;DHT22;8134;49.552;7.632;2022-10-20T23:14:29;14.90;99.90
16060;DHT22;8134;49.552;7.632;2022-10-20T23:16:54;14.90;99.90
16060;DHT22;8134;49.552;7.632;2022-10-20T23:19:20;14.90;99.90
16060;DHT22;8134;49.552;7.632;2022-10-20T23:21:45;14.90;99.90
16060;DHT22;8134;49.552;7.632;2022-10-20T23:24:11;14.90;99.90
16060;DHT22;8134;49.552;7.632;2022-10-20T23:26:36;14.90;99.90
16060;DHT22;8134;49.552;7.632;2022-10-20T23:29:02;14.90;99.90
16060;DHT22;8134;49.552;7.632;2022-10-20T23:31:27;14.90;99.90
16060;DHT22;8134;49.552;7.632;2022-10-20T23:33:54;14.90;99.90
16060;DHT22;8134;49.552;7.632;2022-10-20T23:36:20;14.90;99.90
16060;DHT22;8134;49.552;7.632;2022-10-20T23:38:46;14.90;99.90
16060;DHT22;8134;49.552;7.632;2022-10-20T23:41:12;14.90;99.90
16060;DHT22;8134;49.552;7.632;2022-10-20T23:43:37;14.90;99.90
16060;DHT22;8134;49.552;7.632;2022-10-20T23:46:03;14.90;99.90
16060;DHT22;8134;49.552;7.632;2022-10-20T23:48:29;15.00;99.90
16060;DHT22;8134;49.552;7.632;2022-10-20T23:50:54;15.00;99.90
16060;DHT22;8134;49.552;7.632;2022-10-20T23:53:20;15.00;99.90
16060;DHT22;8134;49.552;7.632;2022-10-20T23:55:45;14.90;99.90
16060;DHT22;8134;49.552;7.632;2022-10-20T23:58:11;14.80;99.90
